Time;durP1;ratioP1;P1;durP2;ratioP2;P2;SDS_P1;SDS_P2;PMS_P1;PMS_P2;Temp;Humidity;BMP_temperature;BMP_pressure;BME280_temperature;BME280_humidity;BME280_pressure;Samples;Min_cycle;Max_cycle;Signal;HPM_P1;HPM_P2
2022/07/13 00:01:04;;;;;;;24.75;18.65;;;;;;;21.86;70.06;102022.16;4953613;29;20405;-61
2022/07/13 00:03:30;;;;;;;26.30;19.70;;;;;;;21.84;70.50;102021.69;4953605;29;20027;-61
2022/07/13 00:05:55;;;;;;;25.10;19.70;;;;;;;21.77;71.03;102027.91;4953894;29;20167;-60
2022/07/13 00:08:20;;;;;;;28.63;20.17;;;;;;;21.72;71.14;102016.91;4954309;29;20078;-61
2022/07/13 00:10:45;;;;;;;26.35;19.58;;;;;;;21.72;70.82;102013.28;4952876;28;20031;-60
2022/07/13 00:13:11;;;;;;;26.55;19.88;;;;;;;21.72;70.21;102016.91;4954432;29;20042;-60
2022/07/13 00:15:36;;;;;;;26.25;20.08;;;;;;;21.63;70.95;102000.13;4954323;29;20050;-61
2022/07/13 00:18:01;;;;;;;25.90;19.27;;;;;;;21.59;70.76;101979.50;4953963;29;20182;-62
2022/07/13 00:20:27;;;;;;;25.70;19.95;;;;;;;21.61;70.27;101984.78;4953822;28;20369;-61
2022/07/13 00:22:53;;;;;;;26.67;19.80;;;;;;;21.59;70.40;101982.31;4954209;29;20027;-62
2022/07/13 00:25:19;;;;;;;25.20;18.50;;;;;;;21.54;70.14;101976.09;4953981;29;20031;-62
2022/07/13 00:27:44;;;;;;;26.58;20.00;;;;;;;21.50;70.42;101970.34;4954326;29;20216;-62
2022/07/13 00:30:10;;;;;;;24.67;18.75;;;;;;;21.50;69.63;101978.78;4953898;28;20023;-62
2022/07/13 00:32:35;;;;;;;28.05;20.05;;;;;;;21.46;70.20;101975.03;4953781;28;20158;-59
2022/07/13 00:35:00;;;;;;;27.75;19.77;;;;;;;21.43;69.89;101967.31;4953268;29;20027;-60
2022/07/13 00:37:26;;;;;;;26.60;19.23;;;;;;;21.38;69.70;101964.72;4952351;28;20035;-60
2022/07/13 00:39:51;;;;;;;26.10;19.35;;;;;;;21.33;69.92;101955.38;4954158;29;20384;-60
2022/07/13 00:42:16;;;;;;;25.92;19.23;;;;;;;21.31;70.06;101951.25;4953753;28;20070;-61
2022/07/13 00:44:41;;;;;;;26.42;19.60;;;;;;;21.32;69.63;101947.25;4953537;29;20350;-61
2022/07/13 00:47:07;;;;;;;26.17;19.20;;;;;;;21.28;69.32;101949.16;4953349;29;20030;-61
2022/07/13 00:49:32;;;;;;;24.70;18.83;;;;;;;21.31;69.34;101943.63;4952926;29;20381;-61
2022/07/13 00:51:58;;;;;;;26.35;19.63;;;;;;;21.33;69.17;101946.91;4953673;29;20086;-61
2022/07/13 00:54:30;;;;;;;24.73;19.30;;;;;;;21.30;69.30;101944.81;4953519;29;20050;-61
2022/07/13 00:57:01;;;;;;;26.03;19.33;;;;;;;21.27;69.27;101944.69;4952991;28;20031;-60
2022/07/13 00:59:26;;;;;;;26.33;20.20;;;;;;;21.28;69.32;101943.53;4953594;29;20279;-62
2022/07/13 01:01:53;;;;;;;25.83;19.17;;;;;;;21.25;70.02;101930.16;4952824;28;20042;-61
2022/07/13 01:04:21;;;;;;;24.73;18.88;;;;;;;21.22;69.61;101919.59;4953381;28;20111;-61
2022/07/13 01:06:48;;;;;;;25.80;18.95;;;;;;;21.25;69.55;101919.72;4952995;29;20027;-61
2022/07/13 01:09:13;;;;;;;26.88;19.40;;;;;;;21.21;69.59;101907.53;4953406;29;20027;-62
2022/07/13 01:11:39;;;;;;;26.98;19.33;;;;;;;21.18;69.73;101917.50;4953395;28;20030;-61
2022/07/13 01:14:05;;;;;;;25.50;19.30;;;;;;;21.14;69.61;101916.56;4952774;29;20035;-62
2022/07/13 01:16:31;;;;;;;24.95;19.02;;;;;;;21.14;69.45;101924.19;4971833;23;20029;-57
2022/07/13 01:18:57;;;;;;;26.98;20.08;;;;;;;21.12;69.27;101912.47;5030165;28;20469;-56
2022/07/13 01:21:23;;;;;;;25.23;19.60;;;;;;;21.11;69.27;101913.63;5029669;28;20120;-54
2022/07/13 01:23:49;;;;;;;26.38;18.85;;;;;;;21.14;68.83;101913.75;5028106;28;20116;-55
2022/07/13 01:26:15;;;;;;;27.88;19.38;;;;;;;21.16;68.89;101914.22;5029835;28;20061;-56
2022/07/13 01:28:40;;;;;;;28.02;19.77;;;;;;;21.18;69.14;101917.50;5030124;28;20052;-56
2022/07/13 01:31:05;;;;;;;26.90;19.60;;;;;;;21.14;68.99;101916.56;5029388;28;20034;-55
2022/07/13 01:33:31;;;;;;;27.80;19.27;;;;;;;21.16;69.10;101917.03;5029738;28;20033;-56
2022/07/13 01:35:56;;;;;;;26.30;19.50;;;;;;;21.14;68.98;101915.75;5029085;28;20428;-53
2022/07/13 01:38:23;;;;;;;25.75;19.27;;;;;;;21.11;69.46;101911.63;5028778;28;20025;-52
2022/07/13 01:40:48;;;;;;;24.73;18.88;;;;;;;21.11;69.65;101919.25;5028813;28;20232;-54
2022/07/13 01:43:14;;;;;;;25.23;18.98;;;;;;;21.11;69.30;101913.63;5029917;28;20053;-54
2022/07/13 01:45:39;;;;;;;27.05;19.13;;;;;;;21.10;69.22;101912.00;5030011;28;20204;-55
2022/07/13 01:48:04;;;;;;;25.45;19.10;;;;;;;21.06;69.24;101911.06;5029916;28;20108;-56
2022/07/13 01:50:30;;;;;;;27.40;18.88;;;;;;;21.07;69.83;101907.06;5032180;28;20117;-53
2022/07/13 01:52:56;;;;;;;27.67;19.55;;;;;;;20.99;69.89;101895.59;5034262;28;20499;-53
2022/07/13 01:55:21;;;;;;;25.77;18.90;;;;;;;21.00;69.92;101897.22;5033728;28;20469;-53
2022/07/13 01:57:47;;;;;;;25.02;18.60;;;;;;;21.01;70.08;101903.69;5033458;28;20083;-53
2022/07/13 02:00:16;;;;;;;27.15;18.98;;;;;;;21.01;69.93;101903.69;5033463;28;20449;-52
2022/07/13 02:02:41;;;;;;;25.98;19.45;;;;;;;21.00;69.54;101910.50;5033739;28;20049;-53
2022/07/13 02:05:09;;;;;;;25.10;18.10;;;;;;;20.97;69.29;101900.75;5032609;28;20437;-51
2022/07/13 02:07:34;;;;;;;26.30;19.42;;;;;;;20.95;70.00;101900.28;5033781;28;20112;-52
2022/07/13 02:10:00;;;;;;;26.67;18.95;;;;;;;20.94;69.76;101904.28;5033620;28;20107;-52
2022/07/13 02:12:25;;;;;;;25.52;18.60;;;;;;;20.93;69.68;101894.19;5033866;28;20036;-51
2022/07/13 02:14:50;;;;;;;25.92;19.38;;;;;;;20.91;69.91;101898.53;5033505;28;20105;-51
2022/07/13 02:17:15;;;;;;;25.63;18.70;;;;;;;20.88;69.81;101884.00;5033446;28;20053;-52
2022/07/13 02:19:41;;;;;;;25.20;18.73;;;;;;;20.84;70.30;101885.88;5033614;28;20034;-53
2022/07/13 02:22:09;;;;;;;26.40;18.33;;;;;;;20.83;70.31;101889.84;5032916;28;20025;-53
2022/07/13 02:24:35;;;;;;;24.88;18.58;;;;;;;20.80;70.72;101881.28;5033527;28;20033;-50
2022/07/13 02:27:00;;;;;;;26.42;18.38;;;;;;;20.78;70.67;101880.84;5033282;28;20029;-50
2022/07/13 02:29:25;;;;;;;25.77;18.38;;;;;;;20.76;70.00;101874.75;5033094;28;20029;-54
2022/07/13 02:31:51;;;;;;;24.58;17.70;;;;;;;20.70;70.48;101882.56;5031876;28;20136;-55
2022/07/13 02:34:17;;;;;;;25.60;18.23;;;;;;;20.69;70.70;101876.09;5032388;28;20026;-55
2022/07/13 02:36:42;;;;;;;26.15;19.25;;;;;;;20.70;70.56;101880.56;5032525;28;20280;-55
2022/07/13 02:39:08;;;;;;;24.85;17.77;;;;;;;20.69;70.86;101878.09;5032481;28;20098;-55
2022/07/13 02:41:33;;;;;;;25.88;18.52;;;;;;;20.69;70.69;101864.84;5032763;28;20108;-54
2022/07/13 02:43:58;;;;;;;27.15;18.25;;;;;;;20.71;70.31;101859.72;5032320;28;20067;-54
2022/07/13 02:46:23;;;;;;;25.25;18.15;;;;;;;20.71;69.96;101862.53;5032922;28;20045;-54
2022/07/13 02:48:49;;;;;;;24.70;17.98;;;;;;;20.75;69.25;101859.84;5032938;28;20393;-54
2022/07/13 02:51:14;;;;;;;26.55;17.52;;;;;;;20.72;68.54;101860.53;5032485;28;20048;-54
2022/07/13 02:53:39;;;;;;;23.88;16.70;;;;;;;20.73;67.92;101840.53;5032475;28;20392;-54
2022/07/13 02:56:08;;;;;;;24.42;16.52;;;;;;;20.72;67.49;101844.47;5032356;28;20029;-55
2022/07/13 02:58:33;;;;;;;22.85;16.80;;;;;;;20.73;67.06;101845.31;5014514;28;20029;-55
2022/07/13 03:00:59;;;;;;;24.73;16.27;;;;;;;20.71;66.95;101844.84;5031596;28;20112;-55
2022/07/13 03:03:24;;;;;;;27.02;17.15;;;;;;;20.73;66.66;101850.94;5010790;28;20449;-54
2022/07/13 03:05:50;;;;;;;23.75;16.00;;;;;;;20.71;66.44;101856.91;5026207;28;20021;-56
2022/07/13 03:08:15;;;;;;;22.67;15.57;;;;;;;20.72;66.41;101861.34;5031544;28;20035;-54
2022/07/13 03:10:40;;;;;;;21.98;14.80;;;;;;;20.72;65.98;101858.53;5032234;28;20075;-56
2022/07/13 03:13:06;;;;;;;22.67;15.02;;;;;;;20.71;65.58;101859.72;5032589;28;20413;-55
2022/07/13 03:15:32;;;;;;;23.17;14.65;;;;;;;20.73;65.33;101860.22;5012716;28;20037;-53
2022/07/13 03:17:57;;;;;;;21.90;14.30;;;;;;;20.68;65.47;101846.38;5030952;28;20049;-55
2022/07/13 03:20:22;;;;;;;22.88;14.02;;;;;;;20.72;65.57;101847.28;5013573;28;20033;-56
2022/07/13 03:22:49;;;;;;;20.60;13.35;;;;;;;20.72;65.12;101852.91;5031774;28;20118;-55
2022/07/13 03:25:15;;;;;;;21.77;13.13;;;;;;;20.75;64.34;101847.81;5032548;28;20073;-54
2022/07/13 03:27:40;;;;;;;22.63;13.50;;;;;;;20.72;64.08;101841.66;5032216;28;20044;-55
2022/07/13 03:30:06;;;;;;;20.75;13.13;;;;;;;20.76;64.38;101849.44;5020348;28;20073;-55
2022/07/13 03:32:32;;;;;;;21.02;13.50;;;;;;;20.75;64.16;101837.38;5011821;28;20030;-54
2022/07/13 03:34:57;;;;;;;20.23;13.48;;;;;;;20.79;64.21;101840.28;5011517;28;20438;-54
2022/07/13 03:37:23;;;;;;;20.92;13.25;;;;;;;20.77;64.18;101834.22;5011751;28;20056;-56
2022/07/13 03:39:48;;;;;;;20.50;13.57;;;;;;;20.80;63.74;101837.13;5011915;28;20105;-55
2022/07/13 03:42:13;;;;;;;21.63;13.52;;;;;;;20.78;63.91;101833.84;5012128;28;20029;-55
2022/07/13 03:44:38;;;;;;;21.20;13.52;;;;;;;20.78;64.17;101827.44;5012119;28;20080;-56
2022/07/13 03:47:04;;;;;;;20.98;13.50;;;;;;;20.77;64.03;101831.41;5011891;28;20113;-57
2022/07/13 03:49:29;;;;;;;21.40;12.93;;;;;;;20.78;63.64;101830.22;5012015;28;20053;-56
2022/07/13 03:51:55;;;;;;;20.23;12.45;;;;;;;20.77;64.28;101826.59;5012328;28;20054;-53
2022/07/13 03:54:20;;;;;;;22.60;13.13;;;;;;;20.77;64.12;101820.16;5011774;28;20036;-57
2022/07/13 03:56:46;;;;;;;19.63;12.55;;;;;;;20.77;63.83;101825.78;5011876;28;20029;-56
2022/07/13 03:59:11;;;;;;;19.77;12.45;;;;;;;20.81;63.40;101830.34;5012055;28;20026;-56
2022/07/13 04:01:37;;;;;;;20.48;12.68;;;;;;;20.80;63.63;101823.06;5011984;28;20018;-56
2022/07/13 04:04:03;;;;;;;19.50;12.00;;;;;;;20.85;63.38;101825.63;5011696;28;20048;-54
2022/07/13 04:06:29;;;;;;;20.27;12.52;;;;;;;20.83;62.76;101822.34;5011668;28;20097;-56
2022/07/13 04:08:54;;;;;;;21.00;12.50;;;;;;;20.85;62.65;101833.28;5010822;28;20100;-56
2022/07/13 04:11:19;;;;;;;20.92;12.02;;;;;;;20.88;61.99;101833.38;5011781;28;20389;-56
2022/07/13 04:13:45;;;;;;;20.48;12.30;;;;;;;20.92;61.62;101830.69;5011878;28;20030;-56
2022/07/13 04:16:10;;;;;;;18.23;11.27;;;;;;;20.95;61.22;101829.97;5011700;28;20084;-57
2022/07/13 04:18:36;;;;;;;19.02;12.13;;;;;;;20.95;61.33;101835.59;5011488;28;20053;-60
2022/07/13 04:21:02;;;;;;;18.77;11.60;;;;;;;20.97;61.09;101818.38;5011335;28;20377;-55
2022/07/13 04:23:29;;;;;;;20.00;11.40;;;;;;;20.91;61.15;101805.72;5010991;28;20103;-57
2022/07/13 04:25:55;;;;;;;19.55;11.55;;;;;;;20.98;61.11;101815.19;5011376;28;20022;-56
2022/07/13 04:28:20;;;;;;;19.50;11.35;;;;;;;20.98;61.33;101808.75;5011489;28;20088;-57
2022/07/13 04:30:46;;;;;;;18.00;11.02;;;;;;;20.96;61.22;101811.94;5011271;28;20362;-56
2022/07/13 04:33:11;;;;;;;18.48;11.30;;;;;;;20.99;61.04;101807.59;5010998;28;20030;-55
2022/07/13 04:35:36;;;;;;;17.90;10.63;;;;;;;21.00;60.86;101812.84;5011128;28;20378;-57
2022/07/13 04:38:02;;;;;;;16.98;10.57;;;;;;;21.01;60.79;101796.81;5011152;28;20025;-55
2022/07/13 04:40:27;;;;;;;18.83;10.40;;;;;;;21.09;60.79;101803.44;5010967;28;20071;-56
2022/07/13 04:42:52;;;;;;;19.75;10.50;;;;;;;21.11;60.33;101801.91;5011446;28;20370;-55
2022/07/13 04:45:19;;;;;;;18.33;10.80;;;;;;;21.16;60.22;101806.50;5009734;28;20117;-56
2022/07/13 04:47:44;;;;;;;19.52;10.50;;;;;;;21.20;59.82;101807.41;5009532;28;20087;-56
2022/07/13 04:50:10;;;;;;;18.75;10.50;;;;;;;21.23;59.49;101797.44;5010859;28;20108;-56
2022/07/13 04:52:35;;;;;;;18.70;10.75;;;;;;;21.31;59.66;101805.72;5010970;28;20541;-56
2022/07/13 04:55:01;;;;;;;18.20;10.32;;;;;;;21.38;58.83;101805.13;5010630;28;20030;-55
2022/07/13 04:57:26;;;;;;;19.70;10.18;;;;;;;21.42;59.05;101806.03;4992831;28;20393;-55
2022/07/13 04:59:51;;;;;;;17.10;10.10;;;;;;;21.48;58.54;101813.06;5010763;28;20331;-57
2022/07/13 05:02:17;;;;;;;18.85;10.15;;;;;;;21.51;58.34;101797.44;5010329;28;20334;-55
2022/07/13 05:04:42;;;;;;;17.73;9.90;;;;;;;21.57;57.57;101803.66;5010032;28;20037;-54
2022/07/13 05:07:07;;;;;;;18.23;10.00;;;;;;;21.62;57.54;101800.59;5010500;28;20469;-55
2022/07/13 05:09:33;;;;;;;17.63;10.18;;;;;;;21.67;57.53;101797.53;5010717;28;20369;-55
2022/07/13 05:11:58;;;;;;;19.75;9.82;;;;;;;21.71;57.45;101795.63;5010753;28;20149;-53
2022/07/13 05:14:23;;;;;;;17.60;9.45;;;;;;;21.76;57.21;101791.72;5010660;28;20022;-54
2022/07/13 05:16:49;;;;;;;18.60;9.93;;;;;;;21.82;57.19;101790.28;5010256;28;20401;-55
2022/07/13 05:19:14;;;;;;;16.55;9.60;;;;;;;21.85;57.12;101789.56;4992679;28;20048;-54
2022/07/13 05:21:39;;;;;;;18.77;10.15;;;;;;;21.91;56.62;101790.94;5010325;28;20410;-53
2022/07/13 05:24:05;;;;;;;17.42;10.07;;;;;;;21.98;56.48;101798.75;5010152;28;20037;-54
2022/07/13 05:26:30;;;;;;;19.55;10.27;;;;;;;22.02;57.25;101796.00;5010539;28;20045;-52
2022/07/13 05:28:56;;;;;;;19.45;10.18;;;;;;;22.07;56.06;101793.75;5010425;28;20078;-53
2022/07/13 05:31:21;;;;;;;18.52;10.35;;;;;;;22.14;55.76;101793.13;5010431;28;20113;-55
2022/07/13 05:33:46;;;;;;;18.50;10.18;;;;;;;22.17;56.01;101789.59;5008658;28;20446;-55
2022/07/13 05:36:12;;;;;;;19.17;9.88;;;;;;;22.21;55.85;101789.69;5010346;28;20062;-56
2022/07/13 05:38:37;;;;;;;18.15;9.88;;;;;;;22.21;56.15;101796.13;5009970;28;20079;-55
2022/07/13 05:41:03;;;;;;;17.02;9.70;;;;;;;22.23;55.96;101810.66;5010041;28;20174;-55
2022/07/13 05:43:28;;;;;;;17.27;10.15;;;;;;;22.23;55.47;101802.22;5009966;28;20059;-55
2022/07/13 05:45:53;;;;;;;17.95;9.55;;;;;;;22.25;55.75;101813.13;5010419;28;20053;-55
2022/07/13 05:48:18;;;;;;;18.23;9.60;;;;;;;22.27;55.19;101814.41;5009732;28;20029;-53
2022/07/13 05:50:44;;;;;;;18.33;10.00;;;;;;;22.30;54.58;101812.84;5009856;28;20103;-54
2022/07/13 05:53:10;;;;;;;17.27;10.05;;;;;;;22.31;54.31;101813.66;4992195;28;20034;-53
2022/07/13 05:55:35;;;;;;;19.10;10.30;;;;;;;22.31;54.32;101813.66;5009657;28;20120;-54
2022/07/13 05:58:00;;;;;;;16.75;10.20;;;;;;;22.33;54.12;101817.78;5010366;28;20036;-56
2022/07/13 06:00:25;;;;;;;18.02;10.20;;;;;;;22.37;54.13;101821.50;5010188;28;20022;-55
2022/07/13 06:02:53;;;;;;;18.73;10.32;;;;;;;22.39;54.31;101819.13;5010468;28;20029;-55
2022/07/13 06:05:18;;;;;;;16.60;9.77;;;;;;;22.54;53.94;101825.97;5008902;28;20026;-55
2022/07/13 06:07:43;;;;;;;17.85;9.77;;;;;;;22.66;54.05;101822.22;5010206;28;20041;-54
2022/07/13 06:10:09;;;;;;;21.15;9.82;;;;;;;22.78;53.78;101823.31;5009215;28;20477;-54
2022/07/13 06:12:34;;;;;;;21.00;10.30;;;;;;;22.86;53.60;101820.25;5009496;28;20053;-53
2022/07/13 06:15:00;;;;;;;19.13;9.80;;;;;;;22.93;53.41;101818.81;5009282;28;20026;-56
2022/07/13 06:17:25;;;;;;;18.77;9.90;;;;;;;22.95;53.56;101817.25;5010059;28;20047;-54
2022/07/13 06:19:50;;;;;;;17.55;10.30;;;;;;;23.00;53.51;101819.78;5009998;28;20137;-55
2022/07/13 06:22:16;;;;;;;20.10;9.55;;;;;;;23.10;53.71;101817.56;5010159;28;20029;-55
2022/07/13 06:24:42;;;;;;;18.77;10.18;;;;;;;23.18;53.01;101822.19;5008895;28;20040;-55
2022/07/13 06:27:08;;;;;;;17.77;9.85;;;;;;;23.31;52.64;101820.88;5010111;28;20441;-55
2022/07/13 06:29:34;;;;;;;17.45;10.30;;;;;;;23.46;52.78;101822.00;5010143;28;20030;-55
2022/07/13 06:31:59;;;;;;;18.10;9.85;;;;;;;23.59;51.88;101819.03;5011779;28;20030;-55
2022/07/13 06:34:25;;;;;;;20.17;10.30;;;;;;;23.74;52.19;101823.75;5010583;28;20038;-55
2022/07/13 06:36:50;;;;;;;18.30;9.90;;;;;;;23.82;51.82;101808.59;5011829;28;20040;-55
2022/07/13 06:39:15;;;;;;;18.30;9.90;;;;;;;23.87;51.72;101815.13;5013094;28;20033;-55
2022/07/13 06:41:41;;;;;;;19.15;10.10;;;;;;;23.89;51.74;101807.09;5013189;28;20030;-55
2022/07/13 06:44:06;;;;;;;20.25;10.40;;;;;;;23.92;51.34;101806.34;5013419;28;20112;-55
2022/07/13 06:46:31;;;;;;;19.13;10.65;;;;;;;24.01;51.64;101806.13;4995528;28;20188;-57
2022/07/13 06:48:57;;;;;;;20.50;10.80;;;;;;;24.04;50.88;101794.88;5013426;28;20389;-56
2022/07/13 06:51:23;;;;;;;20.60;10.55;;;;;;;24.13;51.52;101808.78;5018553;28;20037;-53
2022/07/13 06:53:49;;;;;;;19.98;9.98;;;;;;;24.19;51.44;101807.25;5032635;28;20033;-56
2022/07/13 06:56:15;;;;;;;19.30;10.70;;;;;;;24.26;50.86;101807.38;5032422;28;20037;-56
2022/07/13 06:58:40;;;;;;;19.80;10.35;;;;;;;24.32;51.08;101809.91;5032987;28;20022;-60
2022/07/13 07:01:05;;;;;;;18.45;10.70;;;;;;;24.28;51.43;101807.81;5032250;28;20037;-61
2022/07/13 07:03:30;;;;;;;19.13;10.85;;;;;;;24.27;51.62;101811.84;5032606;28;20360;-57
2022/07/13 07:05:56;;;;;;;18.00;10.43;;;;;;;24.21;52.03;101807.72;5032743;28;20072;-56
2022/07/13 07:08:22;;;;;;;20.25;11.20;;;;;;;24.20;51.58;101810.88;5032941;28;20044;-56
2022/07/13 07:10:47;;;;;;;19.58;10.63;;;;;;;24.33;52.18;101814.34;5032670;28;20436;-56
2022/07/13 07:13:13;;;;;;;18.23;10.48;;;;;;;24.59;51.85;101819.22;5032391;28;20064;-56
2022/07/13 07:15:39;;;;;;;18.88;10.27;;;;;;;24.73;51.36;101815.81;5032795;28;20051;-56
2022/07/13 07:18:04;;;;;;;19.13;10.68;;;;;;;24.81;51.17;101811.09;5014376;28;20083;-59
2022/07/13 07:20:30;;;;;;;19.77;10.88;;;;;;;24.80;51.18;101812.28;5030064;28;20042;-56
2022/07/13 07:22:55;;;;;;;20.00;10.88;;;;;;;24.77;50.83;101817.50;5021958;28;20030;-56
2022/07/13 07:25:21;;;;;;;19.35;10.65;;;;;;;24.69;51.31;101806.47;5012652;28;20108;-57
2022/07/13 07:27:48;;;;;;;20.23;11.15;;;;;;;24.57;51.85;101807.47;4994909;28;20450;-54
2022/07/13 07:30:13;;;;;;;27.50;11.95;;;;;;;24.46;52.44;101801.66;5012913;28;20037;-56
2022/07/13 07:32:39;;;;;;;21.60;11.18;;;;;;;24.57;52.48;101815.94;5012963;28;20030;-56
2022/07/13 07:35:06;;;;;;;19.98;10.57;;;;;;;24.74;52.68;101801.31;5012793;28;20371;-56
2022/07/13 07:37:32;;;;;;;21.50;11.55;;;;;;;24.88;51.98;101800.72;4995987;28;20448;-56
2022/07/13 07:39:57;;;;;;;19.90;11.75;;;;;;;24.98;52.31;101804.06;5025469;28;20040;-54
2022/07/13 07:42:22;;;;;;;19.70;11.57;;;;;;;25.03;51.56;101810.19;5020439;28;20052;-56
2022/07/13 07:44:48;;;;;;;21.30;11.07;;;;;;;25.02;51.90;101802.09;5020021;28;20485;-55
2022/07/13 07:47:13;;;;;;;19.35;11.15;;;;;;;24.99;52.23;101805.69;5010234;28;20096;-56
2022/07/13 07:49:39;;;;;;;20.52;10.82;;;;;;;25.14;52.39;101801.03;5009840;28;20068;-56
2022/07/13 07:52:04;;;;;;;19.48;10.55;;;;;;;25.40;52.04;101802.22;5010767;28;20088;-56
2022/07/13 07:54:29;;;;;;;18.73;10.85;;;;;;;25.49;51.34;101803.53;5011074;28;20038;-55
2022/07/13 07:56:55;;;;;;;20.95;11.20;;;;;;;25.54;51.46;101800.38;5018152;28;20033;-55
2022/07/13 07:59:20;;;;;;;20.20;11.73;;;;;;;25.59;50.91;101802.03;5010315;28;20036;-56
2022/07/13 08:01:45;;;;;;;21.02;11.10;;;;;;;25.58;51.17;101799.56;5028696;28;20030;-57
2022/07/13 08:04:11;;;;;;;19.73;11.00;;;;;;;25.65;51.84;101800.47;5029913;28;20400;-56
2022/07/13 08:06:37;;;;;;;20.05;11.10;;;;;;;25.79;51.30;101804.69;5017450;28;20133;-55
2022/07/13 08:09:02;;;;;;;20.95;11.45;;;;;;;25.89;51.06;101806.78;5010189;28;20029;-59
2022/07/13 08:11:28;;;;;;;19.67;11.65;;;;;;;25.99;51.41;101810.94;5008804;28;20450;-56
2022/07/13 08:13:53;;;;;;;21.25;11.35;;;;;;;25.99;50.94;101808.09;5010394;28;20447;-55
2022/07/13 08:16:19;;;;;;;20.33;11.80;;;;;;;26.05;51.01;101806.53;5010082;28;20046;-55
2022/07/13 08:18:45;;;;;;;17.98;10.55;;;;;;;26.09;51.22;101801.75;5008429;28;20054;-56
2022/07/13 08:21:11;;;;;;;19.42;11.75;;;;;;;26.05;50.89;101817.06;5010005;28;20448;-56
2022/07/13 08:23:52;;;;;;;20.05;11.30;;;;;;;25.91;51.20;101814.91;5008435;28;20100;-56
2022/07/13 08:26:22;;;;;;;19.60;11.02;;;;;;;25.76;51.94;101811.13;5008170;28;20025;-54
2022/07/13 08:28:48;;;;;;;21.48;11.25;;;;;;;25.88;51.73;101813.69;5021788;28;20120;-55
2022/07/13 08:31:14;;;;;;;18.75;10.40;;;;;;;26.12;51.19;101814.34;5018703;28;20055;-55
2022/07/13 08:39:08;;;;;;;18.30;10.63;;;;;;;26.60;50.03;101805.81;5015478;28;20399;-54
2022/07/13 08:41:33;;;;;;;19.83;10.32;;;;;;;26.68;49.52;101801.00;5020223;28;20037;-55
2022/07/13 08:44:00;;;;;;;20.85;10.52;;;;;;;26.66;49.17;101803.41;5020248;28;20033;-56
2022/07/13 08:46:26;;;;;;;21.67;10.60;;;;;;;26.66;49.14;101811.09;5016099;28;20025;-55
2022/07/13 08:48:53;;;;;;;18.02;10.43;;;;;;;26.58;48.70;101801.75;5018710;28;20374;-54
2022/07/13 08:51:20;;;;;;;19.27;10.20;;;;;;;26.56;48.88;101807.00;5013536;28;20137;-56
2022/07/13 08:53:45;;;;;;;19.90;10.55;;;;;;;26.46;49.04;101815.03;5019429;28;20436;-56
2022/07/13 08:56:10;;;;;;;19.45;9.85;;;;;;;26.46;49.11;101815.03;5010869;28;20113;-55
2022/07/13 08:58:36;;;;;;;18.25;10.10;;;;;;;26.36;49.23;101823.44;5021066;28;20511;-56
2022/07/13 09:01:01;;;;;;;19.10;10.00;;;;;;;26.38;48.98;101821.03;5022382;28;20025;-56
2022/07/13 09:03:33;;;;;;;18.90;10.25;;;;;;;26.46;48.19;101817.03;5008701;28;20088;-56
2022/07/13 09:05:59;;;;;;;17.30;10.10;;;;;;;26.47;47.68;101818.66;5008668;28;20497;-56
2022/07/13 09:08:24;;;;;;;18.08;9.80;;;;;;;26.49;47.52;101810.59;5009624;28;20045;-56
2022/07/13 09:10:57;;;;;;;19.58;10.10;;;;;;;26.56;48.32;101824.03;4992069;28;20045;-56
2022/07/13 09:13:42;;;;;;;18.02;9.63;;;;;;;26.75;47.96;101832.28;5009727;28;20029;-57
2022/07/13 09:16:19;;;;;;;19.52;9.85;;;;;;;26.89;47.61;101825.91;5008544;28;20034;-52
2022/07/13 09:18:47;;;;;;;17.30;9.80;;;;;;;27.04;46.66;101817.44;4989904;28;20054;-55
2022/07/13 09:21:13;;;;;;;16.88;9.63;;;;;;;27.17;46.41;101830.09;5008845;28;20219;-56
2022/07/13 09:23:39;;;;;;;18.83;10.20;;;;;;;27.30;46.83;101826.94;5009279;28;20109;-54
2022/07/13 09:26:05;;;;;;;16.92;9.70;;;;;;;27.33;46.53;101826.94;5009512;28;20484;-55
2022/07/13 09:28:48;;;;;;;18.55;10.20;;;;;;;27.31;46.86;101826.53;5019797;28;20078;-53
2022/07/13 09:31:15;;;;;;;16.90;10.30;;;;;;;27.32;46.86;101830.16;5008279;28;20045;-55
2022/07/13 09:33:46;;;;;;;18.35;10.20;;;;;;;27.25;46.27;101826.09;5021794;28;20033;-56
2022/07/13 09:36:22;;;;;;;19.27;10.63;;;;;;;27.20;47.09;101828.50;5023605;28;20044;-55
2022/07/13 09:38:53;;;;;;;18.52;10.50;;;;;;;27.20;47.05;101837.00;5028463;28;20124;-54
2022/07/13 09:41:25;;;;;;;20.80;10.68;;;;;;;27.26;46.42;101843.94;5028756;28;20048;-57
2022/07/13 09:46:58;;;;;;;17.17;10.50;;;;;;;27.21;46.44;101827.28;5017427;28;20175;-56
2022/07/13 09:49:41;;;;;;;17.80;10.32;;;;;;;27.03;46.58;101839.38;5012644;28;20168;-56
2022/07/13 09:52:09;;;;;;;17.42;10.30;;;;;;;26.96;45.23;101853.53;5022791;28;20045;-57
2022/07/13 09:54:36;;;;;;;18.58;9.88;;;;;;;26.91;46.06;101849.03;5028082;28;20030;-56
2022/07/13 09:57:10;;;;;;;18.95;10.18;;;;;;;26.78;45.88;101847.72;5027911;28;20036;-56
2022/07/13 09:59:43;;;;;;;24.08;10.75;;;;;;;26.66;46.38;101851.66;5026374;28;20032;-56
2022/07/13 10:02:09;;;;;;;16.73;10.00;;;;;;;26.72;45.59;101843.59;5027871;28;20445;-56
2022/07/13 10:04:38;;;;;;;18.42;10.25;;;;;;;26.80;45.43;101842.47;5026823;28;20120;-56
2022/07/13 10:07:04;;;;;;;16.35;9.60;;;;;;;26.86;45.15;101846.56;5025927;28;20108;-56
2022/07/13 10:09:30;;;;;;;17.50;9.85;;;;;;;26.85;44.61;101847.75;5027022;28;20119;-56
2022/07/13 10:12:00;;;;;;;17.40;9.50;;;;;;;27.11;45.10;101836.56;5031204;28;20105;-56
2022/07/13 10:14:29;;;;;;;17.50;9.70;;;;;;;27.40;44.87;101837.50;5023510;28;20091;-55
2022/07/13 10:17:05;;;;;;;16.52;9.63;;;;;;;27.65;45.28;101848.19;5003126;28;20033;-56
2022/07/13 10:19:32;;;;;;;17.88;9.60;;;;;;;27.84;43.94;101850.69;5010773;28;20112;-55
2022/07/13 10:22:09;;;;;;;16.77;9.80;;;;;;;27.92;44.30;101842.16;5010363;28;20137;-52
2022/07/13 10:24:36;;;;;;;17.80;9.35;;;;;;;27.98;42.92;101843.38;5014912;28;20025;-57
2022/07/13 10:27:24;;;;;;;19.10;9.45;;;;;;;28.07;42.29;101832.47;5022432;28;20036;-56
2022/07/13 10:29:53;;;;;;;17.42;9.57;;;;;;;28.13;42.73;101842.25;4994062;28;20034;-57
2022/07/13 10:32:27;;;;;;;18.15;9.27;;;;;;;28.10;42.86;101839.41;5021078;28;20170;-57
2022/07/13 10:35:02;;;;;;;25.42;11.13;;;;;;;28.07;43.28;101838.16;5031447;28;20033;-56
2022/07/13 10:37:28;;;;;;;16.85;9.75;;;;;;;28.03;41.96;101852.34;5013420;28;20064;-57
2022/07/13 10:40:11;;;;;;;25.98;10.27;;;;;;;27.95;42.63;101852.75;5031794;28;20037;-52
2022/07/13 10:42:55;;;;;;;27.08;11.48;;;;;;;28.28;43.31;101860.13;5031710;28;20053;-55
2022/07/13 10:45:33;;;;;;;33.47;11.63;;;;;;;28.67;40.99;101857.69;5031334;28;20037;-53
2022/07/13 10:48:02;;;;;;;33.35;11.43;;;;;;;28.86;40.32;101851.56;5031960;28;20060;-59
2022/07/13 10:50:34;;;;;;;42.85;13.15;;;;;;;29.03;39.67;101849.91;5031651;28;20115;-59
2022/07/13 10:53:00;;;;;;;20.50;9.70;;;;;;;28.91;39.66;101862.56;5031916;28;20026;-59
2022/07/13 10:55:31;;;;;;;109.65;22.90;;;;;;;28.66;39.66;101861.75;5031757;28;20163;-59
2022/07/13 10:57:57;;;;;;;18.45;9.68;;;;;;;28.53;40.06;101855.66;5018306;28;20147;-59
2022/07/13 11:00:37;;;;;;;26.50;11.55;;;;;;;28.55;40.89;101858.91;5010713;28;20458;-59
2022/07/13 11:03:06;;;;;;;16.38;8.90;;;;;;;28.48;39.42;101866.22;5011883;28;20105;-59
2022/07/13 11:05:36;;;;;;;16.33;8.77;;;;;;;28.45;38.50;101863.38;5015768;28;20066;-59
2022/07/13 11:08:30;;;;;;;15.45;8.70;;;;;;;28.77;39.17;101860.56;5021692;28;20167;-59
2022/07/13 11:11:09;;;;;;;14.02;8.13;;;;;;;29.11;39.07;101862.13;4989418;28;20042;-59
2022/07/13 11:13:35;;;;;;;14.00;8.60;;;;;;;29.33;37.35;101860.03;5010502;28;20061;-57
2022/07/13 11:16:00;;;;;;;16.73;9.23;;;;;;;29.21;37.34;101863.28;5030145;28;20025;-57
2022/07/13 11:18:28;;;;;;;13.88;8.65;;;;;;;29.18;37.02;101866.97;5030430;28;20210;-59